sensor_id;sensor_type;location;lat;lon;timestamp;temperature;humidity
10417;DHT22;62605;49.432;8.680;2022-12-07T00:01:04;4.10;99.90
10417;DHT22;62605;49.432;8.680;2022-12-07T00:03:33;4.10;1.00
10417;DHT22;62605;49.432;8.680;2022-12-07T00:06:02;4.10;1.00
10417;DHT22;62605;49.432;8.680;2022-12-07T00:08:29;4.00;99.90
10417;DHT22;62605;49.432;8.680;2022-12-07T00:11:01;4.10;1.00
10417;DHT22;62605;49.432;8.680;2022-12-07T00:13:28;4.10;69.40
10417;DHT22;62605;49.432;8.680;2022-12-07T00:15:55;4.10;9.80
10417;DHT22;62605;49.432;8.680;2022-12-07T00:18:23;4.10;99.90
10417;DHT22;62605;49.432;8.680;2022-12-07T00:20:53;4.00;99.90
10417;DHT22;62605;49.432;8.680;2022-12-07T00:23:21;4.00;99.90
10417;DHT22;62605;49.432;8.680;2022-12-07T00:25:48;4.10;99.90
10417;DHT22;62605;49.432;8.680;2022-12-07T00:28:15;4.10;19.70
10417;DHT22;62605;49.432;8.680;2022-12-07T00:30:42;4.00;1.00
10417;DHT22;62605;49.432;8.680;2022-12-07T00:33:11;4.00;89.90
10417;DHT22;62605;49.432;8.680;2022-12-07T00:35:38;4.10;99.90
10417;DHT22;62605;49.432;8.680;2022-12-07T00:38:07;4.10;1.00
10417;DHT22;62605;49.432;8.680;2022-12-07T00:40:34;4.10;1.00
10417;DHT22;62605;49.432;8.680;2022-12-07T00:43:01;4.10;1.00
10417;DHT22;62605;49.432;8.680;2022-12-07T00:45:28;4.20;1.00
10417;DHT22;62605;49.432;8.680;2022-12-07T00:47:59;4.10;1.00
10417;DHT22;62605;49.432;8.680;2022-12-07T00:50:26;4.20;1.00
10417;DHT22;62605;49.432;8.680;2022-12-07T00:52:53;4.20;1.00
10417;DHT22;62605;49.432;8.680;2022-12-07T00:55:23;4.20;1.00
10417;DHT22;62605;49.432;8.680;2022-12-07T00:57:51;4.10;1.00
10417;DHT22;62605;49.432;8.680;2022-12-07T01:00:18;4.20;99.90
10417;DHT22;62605;49.432;8.680;2022-12-07T01:02:45;4.20;99.90
10417;DHT22;62605;49.432;8.680;2022-12-07T01:05:13;4.30;99.90
10417;DHT22;62605;49.432;8.680;2022-12-07T01:07:40;4.30;1.00
10417;DHT22;62605;49.432;8.680;2022-12-07T01:10:08;4.30;1.00
10417;DHT22;62605;49.432;8.680;2022-12-07T01:12:36;4.30;1.00
10417;DHT22;62605;49.432;8.680;2022-12-07T01:15:06;4.30;1.00
10417;DHT22;62605;49.432;8.680;2022-12-07T01:17:34;4.40;1.00
10417;DHT22;62605;49.432;8.680;2022-12-07T01:20:02;4.40;1.00
10417;DHT22;62605;49.432;8.680;2022-12-07T01:22:29;4.30;1.00
10417;DHT22;62605;49.432;8.680;2022-12-07T01:24:57;4.30;1.00
10417;DHT22;62605;49.432;8.680;2022-12-07T01:27:24;4.30;1.00
10417;DHT22;62605;49.432;8.680;2022-12-07T01:29:53;4.30;1.00
10417;DHT22;62605;49.432;8.680;2022-12-07T01:32:23;4.20;1.00
10417;DHT22;62605;49.432;8.680;2022-12-07T01:34:51;4.30;1.00
10417;DHT22;62605;49.432;8.680;2022-12-07T01:37:20;4.40;1.00
10417;DHT22;62605;49.432;8.680;2022-12-07T01:39:48;4.20;1.00
10417;DHT22;62605;49.432;8.680;2022-12-07T01:42:16;4.20;1.00
10417;DHT22;62605;49.432;8.680;2022-12-07T01:45:34;4.20;1.00
10417;DHT22;62605;49.432;8.680;2022-12-07T01:48:06;4.20;1.00
10417;DHT22;62605;49.432;8.680;2022-12-07T01:50:36;4.30;1.00
10417;DHT22;62605;49.432;8.680;2022-12-07T01:53:06;4.30;1.00
10417;DHT22;62605;49.432;8.680;2022-12-07T01:55:40;4.30;1.00
10417;DHT22;62605;49.432;8.680;2022-12-07T01:58:09;4.30;1.00
10417;DHT22;62605;49.432;8.680;2022-12-07T02:00:39;4.30;1.00
10417;DHT22;62605;49.432;8.680;2022-12-07T02:03:11;4.30;1.00
10417;DHT22;62605;49.432;8.680;2022-12-07T02:05:41;4.20;1.00
10417;DHT22;62605;49.432;8.680;2022-12-07T02:08:11;4.20;1.00
10417;DHT22;62605;49.432;8.680;2022-12-07T02:10:38;4.20;1.00
10417;DHT22;62605;49.432;8.680;2022-12-07T02:13:09;4.20;1.00
10417;DHT22;62605;49.432;8.680;2022-12-07T02:15:48;4.10;1.00
10417;DHT22;62605;49.432;8.680;2022-12-07T02:18:25;4.20;1.00
10417;DHT22;62605;49.432;8.680;2022-12-07T02:21:05;4.10;1.00
10417;DHT22;62605;49.432;8.680;2022-12-07T02:27:11;4.10;1.00
10417;DHT22;62605;49.432;8.680;2022-12-07T02:29:45;4.10;1.00
10417;DHT22;62605;49.432;8.680;2022-12-07T02:32:18;4.20;99.90
10417;DHT22;62605;49.432;8.680;2022-12-07T02:34:50;4.20;99.90
10417;DHT22;62605;49.432;8.680;2022-12-07T02:37:29;4.10;99.90
10417;DHT22;62605;49.432;8.680;2022-12-07T02:40:05;4.10;1.00
10417;DHT22;62605;49.432;8.680;2022-12-07T02:42:40;4.10;99.90
10417;DHT22;62605;49.432;8.680;2022-12-07T02:45:13;4.00;99.90
10417;DHT22;62605;49.432;8.680;2022-12-07T02:47:43;4.00;99.90
10417;DHT22;62605;49.432;8.680;2022-12-07T02:50:12;4.10;99.90
10417;DHT22;62605;49.432;8.680;2022-12-07T02:52:40;4.00;99.90
10417;DHT22;62605;49.432;8.680;2022-12-07T02:55:09;4.00;99.90
10417;DHT22;62605;49.432;8.680;2022-12-07T02:57:45;3.90;1.00
10417;DHT22;62605;49.432;8.680;2022-12-07T03:00:20;4.00;99.90
10417;DHT22;62605;49.432;8.680;2022-12-07T03:02:52;4.00;1.00
10417;DHT22;62605;49.432;8.680;2022-12-07T03:05:44;4.00;1.00
10417;DHT22;62605;49.432;8.680;2022-12-07T03:08:23;4.00;99.90
10417;DHT22;62605;49.432;8.680;2022-12-07T03:10:56;4.00;1.00
10417;DHT22;62605;49.432;8.680;2022-12-07T03:13:29;4.00;1.00
10417;DHT22;62605;49.432;8.680;2022-12-07T03:16:09;4.10;1.00
10417;DHT22;62605;49.432;8.680;2022-12-07T03:18:42;4.10;1.00
10417;DHT22;62605;49.432;8.680;2022-12-07T03:21:14;4.10;1.00
10417;DHT22;62605;49.432;8.680;2022-12-07T03:23:45;4.10;19.50
10417;DHT22;62605;49.432;8.680;2022-12-07T03:26:19;4.20;1.00
10417;DHT22;62605;49.432;8.680;2022-12-07T03:28:52;4.10;1.00
10417;DHT22;62605;49.432;8.680;2022-12-07T03:31:23;4.20;12.20
10417;DHT22;62605;49.432;8.680;2022-12-07T03:33:57;4.20;1.00
10417;DHT22;62605;49.432;8.680;2022-12-07T03:36:32;4.10;1.00
10417;DHT22;62605;49.432;8.680;2022-12-07T03:39:13;4.10;69.50
10417;DHT22;62605;49.432;8.680;2022-12-07T03:41:45;4.20;1.00
10417;DHT22;62605;49.432;8.680;2022-12-07T03:44:15;4.10;99.90
10417;DHT22;62605;49.432;8.680;2022-12-07T03:46:49;4.10;99.90
10417;DHT22;62605;49.432;8.680;2022-12-07T03:49:24;4.10;1.00
10417;DHT22;62605;49.432;8.680;2022-12-07T03:51:57;4.10;1.00
10417;DHT22;62605;49.432;8.680;2022-12-07T03:54:29;4.10;99.90
10417;DHT22;62605;49.432;8.680;2022-12-07T03:56:58;4.20;1.00
10417;DHT22;62605;49.432;8.680;2022-12-07T03:59:28;4.10;99.90
10417;DHT22;62605;49.432;8.680;2022-12-07T04:02:03;4.10;1.00
10417;DHT22;62605;49.432;8.680;2022-12-07T04:04:31;4.10;99.90
10417;DHT22;62605;49.432;8.680;2022-12-07T04:07:05;4.20;1.00
10417;DHT22;62605;49.432;8.680;2022-12-07T04:09:35;4.20;1.00
10417;DHT22;62605;49.432;8.680;2022-12-07T04:12:07;4.20;1.00
10417;DHT22;62605;49.432;8.680;2022-12-07T04:14:36;4.20;39.20
10417;DHT22;62605;49.432;8.680;2022-12-07T04:17:09;4.10;1.00
10417;DHT22;62605;49.432;8.680;2022-12-07T04:19:36;4.20;99.90
10417;DHT22;62605;49.432;8.680;2022-12-07T04:22:06;4.20;1.00
10417;DHT22;62605;49.432;8.680;2022-12-07T04:24:35;4.20;99.90
10417;DHT22;62605;49.432;8.680;2022-12-07T04:27:02;4.10;1.00
10417;DHT22;62605;49.432;8.680;2022-12-07T04:29:31;4.20;99.90
10417;DHT22;62605;49.432;8.680;2022-12-07T04:31:58;4.20;99.90
10417;DHT22;62605;49.432;8.680;2022-12-07T04:34:30;4.20;1.00
10417;DHT22;62605;49.432;8.680;2022-12-07T04:36:59;4.10;1.00
10417;DHT22;62605;49.432;8.680;2022-12-07T04:39:29;4.20;84.70
10417;DHT22;62605;49.432;8.680;2022-12-07T04:41:57;4.20;99.90
10417;DHT22;62605;49.432;8.680;2022-12-07T04:44:26;4.20;12.40
10417;DHT22;62605;49.432;8.680;2022-12-07T04:46:54;4.30;99.90
10417;DHT22;62605;49.432;8.680;2022-12-07T04:49:24;4.30;1.00
10417;DHT22;62605;49.432;8.680;2022-12-07T04:51:54;4.20;1.00
10417;DHT22;62605;49.432;8.680;2022-12-07T04:54:23;4.40;99.90
10417;DHT22;62605;49.432;8.680;2022-12-07T04:56:51;4.30;1.00
10417;DHT22;62605;49.432;8.680;2022-12-07T04:59:19;4.40;99.90
10417;DHT22;62605;49.432;8.680;2022-12-07T05:01:46;4.30;99.90
10417;DHT22;62605;49.432;8.680;2022-12-07T05:04:15;4.30;1.00
10417;DHT22;62605;49.432;8.680;2022-12-07T05:06:43;4.30;1.00
10417;DHT22;62605;49.432;8.680;2022-12-07T05:09:13;4.20;1.00
10417;DHT22;62605;49.432;8.680;2022-12-07T05:11:40;4.20;1.00
10417;DHT22;62605;49.432;8.680;2022-12-07T05:14:13;4.20;92.80
10417;DHT22;62605;49.432;8.680;2022-12-07T05:16:41;4.20;99.90
10417;DHT22;62605;49.432;8.680;2022-12-07T05:19:10;4.20;99.90
10417;DHT22;62605;49.432;8.680;2022-12-07T05:21:38;4.10;99.90
10417;DHT22;62605;49.432;8.680;2022-12-07T05:24:07;4.00;99.90
10417;DHT22;62605;49.432;8.680;2022-12-07T05:26:36;4.00;1.00
10417;DHT22;62605;49.432;8.680;2022-12-07T05:29:04;3.90;99.90
10417;DHT22;62605;49.432;8.680;2022-12-07T05:31:32;3.80;99.90
10417;DHT22;62605;49.432;8.680;2022-12-07T05:34:01;3.90;99.90
10417;DHT22;62605;49.432;8.680;2022-12-07T05:36:28;3.90;1.00
10417;DHT22;62605;49.432;8.680;2022-12-07T05:38:56;3.90;16.40
10417;DHT22;62605;49.432;8.680;2022-12-07T05:41:25;3.90;1.00
10417;DHT22;62605;49.432;8.680;2022-12-07T05:44:12;3.90;1.00
10417;DHT22;62605;49.432;8.680;2022-12-07T05:46:40;3.80;1.00
10417;DHT22;62605;49.432;8.680;2022-12-07T05:49:07;3.70;1.00
10417;DHT22;62605;49.432;8.680;2022-12-07T05:51:36;3.80;99.90
10417;DHT22;62605;49.432;8.680;2022-12-07T05:54:04;3.90;99.90
10417;DHT22;62605;49.432;8.680;2022-12-07T05:56:31;3.80;99.90
10417;DHT22;62605;49.432;8.680;2022-12-07T05:58:59;3.80;1.00
10417;DHT22;62605;49.432;8.680;2022-12-07T06:01:45;3.90;99.90
10417;DHT22;62605;49.432;8.680;2022-12-07T06:04:16;3.90;1.00
10417;DHT22;62605;49.432;8.680;2022-12-07T06:06:44;3.90;1.00
10417;DHT22;62605;49.432;8.680;2022-12-07T06:09:14;3.90;1.00
10417;DHT22;62605;49.432;8.680;2022-12-07T06:11:42;3.90;99.90
10417;DHT22;62605;49.432;8.680;2022-12-07T06:14:27;3.90;1.00
10417;DHT22;62605;49.432;8.680;2022-12-07T06:16:56;3.90;1.00
10417;DHT22;62605;49.432;8.680;2022-12-07T06:19:24;3.90;1.00
10417;DHT22;62605;49.432;8.680;2022-12-07T06:21:52;3.90;29.90
10417;DHT22;62605;49.432;8.680;2022-12-07T06:24:21;3.80;99.90
10417;DHT22;62605;49.432;8.680;2022-12-07T06:26:49;3.70;1.00
10417;DHT22;62605;49.432;8.680;2022-12-07T06:29:20;3.80;30.00
10417;DHT22;62605;49.432;8.680;2022-12-07T06:31:48;3.70;1.00
10417;DHT22;62605;49.432;8.680;2022-12-07T06:34:19;3.70;27.00
10417;DHT22;62605;49.432;8.680;2022-12-07T06:36:49;3.70;1.00
10417;DHT22;62605;49.432;8.680;2022-12-07T06:39:19;3.70;1.00
10417;DHT22;62605;49.432;8.680;2022-12-07T06:41:48;3.60;1.00
10417;DHT22;62605;49.432;8.680;2022-12-07T06:44:40;3.80;1.00
10417;DHT22;62605;49.432;8.680;2022-12-07T06:47:14;3.70;1.00
10417;DHT22;62605;49.432;8.680;2022-12-07T06:49:48;3.60;1.00
10417;DHT22;62605;49.432;8.680;2022-12-07T06:52:20;3.40;1.00
10417;DHT22;62605;49.432;8.680;2022-12-07T06:54:48;3.50;1.00
10417;DHT22;62605;49.432;8.680;2022-12-07T06:57:17;3.50;1.00
10417;DHT22;62605;49.432;8.680;2022-12-07T06:59:46;3.60;1.00
10417;DHT22;62605;49.432;8.680;2022-12-07T07:02:15;3.50;1.00
10417;DHT22;62605;49.432;8.680;2022-12-07T07:04:53;3.50;1.00
10417;DHT22;62605;49.432;8.680;2022-12-07T07:07:23;3.50;1.00
10417;DHT22;62605;49.432;8.680;2022-12-07T07:09:50;3.50;1.00
10417;DHT22;62605;49.432;8.680;2022-12-07T07:12:20;3.50;1.00
10417;DHT22;62605;49.432;8.680;2022-12-07T07:14:48;3.60;1.00
10417;DHT22;62605;49.432;8.680;2022-12-07T07:17:17;3.50;1.00
10417;DHT22;62605;49.432;8.680;2022-12-07T07:19:48;3.50;1.00
10417;DHT22;62605;49.432;8.680;2022-12-07T07:22:16;3.50;1.00
10417;DHT22;62605;49.432;8.680;2022-12-07T07:24:43;3.60;1.00
10417;DHT22;62605;49.432;8.680;2022-12-07T07:27:12;3.60;1.00
10417;DHT22;62605;49.432;8.680;2022-12-07T07:29:41;3.70;1.00
10417;DHT22;62605;49.432;8.680;2022-12-07T07:32:10;3.80;1.00
10417;DHT22;62605;49.432;8.680;2022-12-07T07:34:39;3.60;1.00
10417;DHT22;62605;49.432;8.680;2022-12-07T07:37:09;3.60;1.00
10417;DHT22;62605;49.432;8.680;2022-12-07T07:39:38;3.80;1.00
10417;DHT22;62605;49.432;8.680;2022-12-07T07:42:06;3.70;1.00
10417;DHT22;62605;49.432;8.680;2022-12-07T07:44:35;3.70;1.00
10417;DHT22;62605;49.432;8.680;2022-12-07T07:47:02;3.60;1.00
10417;DHT22;62605;49.432;8.680;2022-12-07T07:49:31;3.60;1.00
10417;DHT22;62605;49.432;8.680;2022-12-07T07:51:59;3.70;1.00
10417;DHT22;62605;49.432;8.680;2022-12-07T07:54:29;3.70;1.00
10417;DHT22;62605;49.432;8.680;2022-12-07T07:56:57;3.70;1.00
10417;DHT22;62605;49.432;8.680;2022-12-07T07:59:24;3.80;1.00
10417;DHT22;62605;49.432;8.680;2022-12-07T08:01:55;3.80;1.00
10417;DHT22;62605;49.432;8.680;2022-12-07T08:04:24;3.90;1.00
10417;DHT22;62605;49.432;8.680;2022-12-07T08:06:52;3.90;1.00
10417;DHT22;62605;49.432;8.680;2022-12-07T08:09:21;3.90;1.00
10417;DHT22;62605;49.432;8.680;2022-12-07T08:11:55;3.90;1.00
10417;DHT22;62605;49.432;8.680;2022-12-07T08:14:24;3.90;1.00
10417;DHT22;62605;49.432;8.680;2022-12-07T08:16:54;3.90;1.00
10417;DHT22;62605;49.432;8.680;2022-12-07T08:19:23;3.90;1.00
10417;DHT22;62605;49.432;8.680;2022-12-07T08:21:50;3.90;99.90
10417;DHT22;62605;49.432;8.680;2022-12-07T08:24:22;4.00;99.90
10417;DHT22;62605;49.432;8.680;2022-12-07T08:26:54;4.00;1.00
10417;DHT22;62605;49.432;8.680;2022-12-07T08:29:22;4.20;99.90
10417;DHT22;62605;49.432;8.680;2022-12-07T08:31:49;4.10;1.00
10417;DHT22;62605;49.432;8.680;2022-12-07T08:34:18;4.20;1.00
10417;DHT22;62605;49.432;8.680;2022-12-07T08:36:45;4.20;1.00
10417;DHT22;62605;49.432;8.680;2022-12-07T08:39:14;4.20;1.00
10417;DHT22;62605;49.432;8.680;2022-12-07T08:41:42;4.20;1.00
10417;DHT22;62605;49.432;8.680;2022-12-07T08:44:12;4.20;75.30
10417;DHT22;62605;49.432;8.680;2022-12-07T08:46:42;4.20;99.90
10417;DHT22;62605;49.432;8.680;2022-12-07T08:49:14;4.20;99.90
10417;DHT22;62605;49.432;8.680;2022-12-07T08:51:43;4.20;99.90
10417;DHT22;62605;49.432;8.680;2022-12-07T08:54:16;4.30;1.00
10417;DHT22;62605;49.432;8.680;2022-12-07T08:56:44;4.20;99.90
10417;DHT22;62605;49.432;8.680;2022-12-07T08:59:19;4.40;99.90
10417;DHT22;62605;49.432;8.680;2022-12-07T09:01:48;4.50;99.90
10417;DHT22;62605;49.432;8.680;2022-12-07T09:04:18;4.50;99.90
10417;DHT22;62605;49.432;8.680;2022-12-07T09:06:47;4.50;99.90
10417;DHT22;62605;49.432;8.680;2022-12-07T09:09:16;4.40;99.90
10417;DHT22;62605;49.432;8.680;2022-12-07T09:11:43;4.50;1.00
10417;DHT22;62605;49.432;8.680;2022-12-07T09:14:10;4.50;99.90
10417;DHT22;62605;49.432;8.680;2022-12-07T09:16:39;4.50;78.60
10417;DHT22;62605;49.432;8.680;2022-12-07T09:19:08;4.40;99.90
10417;DHT22;62605;49.432;8.680;2022-12-07T09:21:35;4.40;1.00
10417;DHT22;62605;49.432;8.680;2022-12-07T09:24:05;4.50;1.00
10417;DHT22;62605;49.432;8.680;2022-12-07T09:26:32;4.40;99.90
10417;DHT22;62605;49.432;8.680;2022-12-07T09:29:02;4.40;95.70
10417;DHT22;62605;49.432;8.680;2022-12-07T09:31:30;4.30;96.40
10417;DHT22;62605;49.432;8.680;2022-12-07T09:34:03;4.40;1.00
10417;DHT22;62605;49.432;8.680;2022-12-07T09:36:33;4.40;99.90
10417;DHT22;62605;49.432;8.680;2022-12-07T09:39:01;4.40;1.00
10417;DHT22;62605;49.432;8.680;2022-12-07T09:41:31;4.40;1.00
10417;DHT22;62605;49.432;8.680;2022-12-07T09:44:05;4.30;99.90
10417;DHT22;62605;49.432;8.680;2022-12-07T09:46:36;4.30;99.90
10417;DHT22;62605;49.432;8.680;2022-12-07T09:49:12;4.30;1.00
10417;DHT22;62605;49.432;8.680;2022-12-07T09:51:41;4.40;1.00
10417;DHT22;62605;49.432;8.680;2022-12-07T09:54:13;4.40;99.90
10417;DHT22;62605;49.432;8.680;2022-12-07T09:56:41;4.50;99.90
10417;DHT22;62605;49.432;8.680;2022-12-07T09:59:15;4.50;1.00
10417;DHT22;62605;49.432;8.680;2022-12-07T10:01:44;4.40;1.00
10417;DHT22;62605;49.432;8.680;2022-12-07T10:04:18;4.30;99.90
10417;DHT22;62605;49.432;8.680;2022-12-07T10:06:47;4.40;1.00
10417;DHT22;62605;49.432;8.680;2022-12-07T10:09:19;4.40;99.90
10417;DHT22;62605;49.432;8.680;2022-12-07T10:12:04;4.40;1.00
10417;DHT22;62605;49.432;8.680;2022-12-07T10:14:34;4.60;99.90
10417;DHT22;62605;49.432;8.680;2022-12-07T10:17:02;4.50;1.00
10417;DHT22;62605;49.432;8.680;2022-12-07T10:19:32;4.50;1.00
10417;DHT22;62605;49.432;8.680;2022-12-07T10:22:05;4.40;99.90
10417;DHT22;62605;49.432;8.680;2022-12-07T10:24:33;4.50;99.90
10417;DHT22;62605;49.432;8.680;2022-12-07T10:27:01;4.60;1.00
10417;DHT22;62605;49.432;8.680;2022-12-07T10:29:30;4.60;1.00
10417;DHT22;62605;49.432;8.680;2022-12-07T10:32:02;4.70;1.00
10417;DHT22;62605;49.432;8.680;2022-12-07T10:34:33;4.70;1.00
10417;DHT22;62605;49.432;8.680;2022-12-07T10:37:16;4.70;1.00
10417;DHT22;62605;49.432;8.680;2022-12-07T10:39:45;4.70;1.00
10417;DHT22;62605;49.432;8.680;2022-12-07T10:42:17;4.70;1.00
10417;DHT22;62605;49.432;8.680;2022-12-07T10:44:46;4.60;99.90
10417;DHT22;62605;49.432;8.680;2022-12-07T10:47:25;4.70;1.00
10417;DHT22;62605;49.432;8.680;2022-12-07T10:50:31;4.80;1.00
10417;DHT22;62605;49.432;8.680;2022-12-07T10:53:25;4.90;99.90
10417;DHT22;62605;49.432;8.680;2022-12-07T10:56:03;4.80;99.90
10417;DHT22;62605;49.432;8.680;2022-12-07T10:58:50;4.90;99.90
10417;DHT22;62605;49.432;8.680;2022-12-07T11:01:25;4.90;99.90
10417;DHT22;62605;49.432;8.680;2022-12-07T11:04:17;4.90;99.90
10417;DHT22;62605;49.432;8.680;2022-12-07T11:06:54;4.80;1.00
10417;DHT22;62605;49.432;8.680;2022-12-07T11:09:43;4.80;99.90
10417;DHT22;62605;49.432;8.680;2022-12-07T11:12:16;4.80;99.90
10417;DHT22;62605;49.432;8.680;2022-12-07T11:14:56;4.80;99.90
10417;DHT22;62605;49.432;8.680;2022-12-07T11:17:33;4.80;1.00
10417;DHT22;62605;49.432;8.680;2022-12-07T11:20:15;4.90;1.00
10417;DHT22;62605;49.432;8.680;2022-12-07T11:22:58;4.80;1.00
10417;DHT22;62605;49.432;8.680;2022-12-07T11:25:32;4.80;1.00
10417;DHT22;62605;49.432;8.680;2022-12-07T11:28:17;4.80;1.00
10417;DHT22;62605;49.432;8.680;2022-12-07T11:30:53;4.90;99.90
10417;DHT22;62605;49.432;8.680;2022-12-07T11:33:29;4.90;1.00
10417;DHT22;62605;49.432;8.680;2022-12-07T11:36:08;4.90;99.90
10417;DHT22;62605;49.432;8.680;2022-12-07T11:38:48;4.90;1.00
10417;DHT22;62605;49.432;8.680;2022-12-07T11:41:22;4.90;1.00
10417;DHT22;62605;49.432;8.680;2022-12-07T11:43:56;4.90;1.00
10417;DHT22;62605;49.432;8.680;2022-12-07T11:46:29;5.00;32.00
10417;DHT22;62605;49.432;8.680;2022-12-07T11:49:07;4.90;1.00
10417;DHT22;62605;49.432;8.680;2022-12-07T11:51:39;4.90;1.00
10417;DHT22;62605;49.432;8.680;2022-12-07T11:54:19;5.00;1.00
10417;DHT22;62605;49.432;8.680;2022-12-07T11:56:50;4.90;1.00
10417;DHT22;62605;49.432;8.680;2022-12-07T11:59:25;5.00;1.00
10417;DHT22;62605;49.432;8.680;2022-12-07T12:02:00;4.90;1.00
10417;DHT22;62605;49.432;8.680;2022-12-07T12:04:38;4.90;1.00
10417;DHT22;62605;49.432;8.680;2022-12-07T12:07:13;4.90;99.90
10417;DHT22;62605;49.432;8.680;2022-12-07T12:09:49;5.00;1.00
10417;DHT22;62605;49.432;8.680;2022-12-07T12:12:35;5.10;1.00
10417;DHT22;62605;49.432;8.680;2022-12-07T12:15:37;5.10;99.90
10417;DHT22;62605;49.432;8.680;2022-12-07T12:21:14;5.30;1.00
10417;DHT22;62605;49.432;8.680;2022-12-07T12:23:46;5.40;1.00
10417;DHT22;62605;49.432;8.680;2022-12-07T12:26:18;5.50;99.90
10417;DHT22;62605;49.432;8.680;2022-12-07T12:28:54;5.60;99.90
10417;DHT22;62605;49.432;8.680;2022-12-07T12:31:34;5.70;99.90
10417;DHT22;62605;49.432;8.680;2022-12-07T12:34:31;5.70;88.50
10417;DHT22;62605;49.432;8.680;2022-12-07T12:37:00;5.60;99.90
10417;DHT22;62605;49.432;8.680;2022-12-07T12:39:29;5.80;99.90
10417;DHT22;62605;49.432;8.680;2022-12-07T12:42:00;5.80;1.00
10417;DHT22;62605;49.432;8.680;2022-12-07T12:47:43;5.70;1.00
10417;DHT22;62605;49.432;8.680;2022-12-07T12:50:21;5.70;1.00
10417;DHT22;62605;49.432;8.680;2022-12-07T12:52:59;5.70;1.00
10417;DHT22;62605;49.432;8.680;2022-12-07T12:58:35;5.70;99.90
10417;DHT22;62605;49.432;8.680;2022-12-07T13:01:37;5.60;99.90
10417;DHT22;62605;49.432;8.680;2022-12-07T13:04:27;5.60;1.00
10417;DHT22;62605;49.432;8.680;2022-12-07T13:06:55;5.60;1.00
10417;DHT22;62605;49.432;8.680;2022-12-07T13:09:34;5.60;1.00
10417;DHT22;62605;49.432;8.680;2022-12-07T13:12:03;5.60;99.90
10417;DHT22;62605;49.432;8.680;2022-12-07T13:14:54;5.60;99.90
10417;DHT22;62605;49.432;8.680;2022-12-07T13:20:52;5.60;1.00
10417;DHT22;62605;49.432;8.680;2022-12-07T13:23:26;5.60;1.00
10417;DHT22;62605;49.432;8.680;2022-12-07T13:26:08;5.60;99.90
10417;DHT22;62605;49.432;8.680;2022-12-07T13:28:38;5.70;99.90
10417;DHT22;62605;49.432;8.680;2022-12-07T13:31:24;5.60;10.50
10417;DHT22;62605;49.432;8.680;2022-12-07T13:33:52;5.70;1.00
10417;DHT22;62605;49.432;8.680;2022-12-07T13:36:24;5.70;99.90
10417;DHT22;62605;49.432;8.680;2022-12-07T13:38:54;5.80;1.00
10417;DHT22;62605;49.432;8.680;2022-12-07T13:41:24;5.80;1.00
10417;DHT22;62605;49.432;8.680;2022-12-07T13:44:00;5.70;99.90
10417;DHT22;62605;49.432;8.680;2022-12-07T13:46:41;5.70;99.90
10417;DHT22;62605;49.432;8.680;2022-12-07T13:49:18;5.80;99.90
10417;DHT22;62605;49.432;8.680;2022-12-07T13:51:48;5.70;99.90
10417;DHT22;62605;49.432;8.680;2022-12-07T13:54:17;5.80;99.90
10417;DHT22;62605;49.432;8.680;2022-12-07T13:56:47;5.80;1.00
10417;DHT22;62605;49.432;8.680;2022-12-07T13:59:17;5.80;99.90
10417;DHT22;62605;49.432;8.680;2022-12-07T14:01:46;5.70;99.90
10417;DHT22;62605;49.432;8.680;2022-12-07T14:04:32;5.90;1.00
10417;DHT22;62605;49.432;8.680;2022-12-07T14:07:19;5.90;1.00
10417;DHT22;62605;49.432;8.680;2022-12-07T14:09:58;5.90;1.00
10417;DHT22;62605;49.432;8.680;2022-12-07T14:12:27;5.90;1.00
10417;DHT22;62605;49.432;8.680;2022-12-07T14:15:20;5.90;1.00
10417;DHT22;62605;49.432;8.680;2022-12-07T14:17:57;5.90;99.90
10417;DHT22;62605;49.432;8.680;2022-12-07T14:20:31;5.80;99.90
10417;DHT22;62605;49.432;8.680;2022-12-07T14:23:02;5.90;1.00
10417;DHT22;62605;49.432;8.680;2022-12-07T14:25:45;5.80;1.00
10417;DHT22;62605;49.432;8.680;2022-12-07T14:28:27;5.80;1.00
10417;DHT22;62605;49.432;8.680;2022-12-07T14:30:54;5.70;99.90
10417;DHT22;62605;49.432;8.680;2022-12-07T14:33:25;5.80;1.00
10417;DHT22;62605;49.432;8.680;2022-12-07T14:35:54;5.80;99.90
10417;DHT22;62605;49.432;8.680;2022-12-07T14:38:25;5.70;99.90
10417;DHT22;62605;49.432;8.680;2022-12-07T14:40:53;5.60;1.00
10417;DHT22;62605;49.432;8.680;2022-12-07T14:43:43;5.60;1.00
10417;DHT22;62605;49.432;8.680;2022-12-07T14:46:11;5.50;1.00
10417;DHT22;62605;49.432;8.680;2022-12-07T14:48:38;5.40;99.90
10417;DHT22;62605;49.432;8.680;2022-12-07T14:51:09;5.40;1.00
10417;DHT22;62605;49.432;8.680;2022-12-07T14:53:42;5.40;1.00
10417;DHT22;62605;49.432;8.680;2022-12-07T14:56:10;5.50;99.90
10417;DHT22;62605;49.432;8.680;2022-12-07T14:58:37;5.50;1.00
10417;DHT22;62605;49.432;8.680;2022-12-07T15:01:09;5.60;99.90
10417;DHT22;62605;49.432;8.680;2022-12-07T15:03:36;5.60;1.00
10417;DHT22;62605;49.432;8.680;2022-12-07T15:06:06;5.60;1.00
10417;DHT22;62605;49.432;8.680;2022-12-07T15:08:34;5.50;4.70
10417;DHT22;62605;49.432;8.680;2022-12-07T15:11:04;5.50;1.00
10417;DHT22;62605;49.432;8.680;2022-12-07T15:13:31;5.50;1.00
10417;DHT22;62605;49.432;8.680;2022-12-07T15:16:19;5.60;99.90
10417;DHT22;62605;49.432;8.680;2022-12-07T15:18:47;5.60;37.80
10417;DHT22;62605;49.432;8.680;2022-12-07T15:21:16;5.60;99.90
10417;DHT22;62605;49.432;8.680;2022-12-07T15:23:43;5.60;99.90
10417;DHT22;62605;49.432;8.680;2022-12-07T15:26:13;5.60;99.90
10417;DHT22;62605;49.432;8.680;2022-12-07T15:28:44;5.50;1.00
10417;DHT22;62605;49.432;8.680;2022-12-07T15:31:13;5.60;1.00
10417;DHT22;62605;49.432;8.680;2022-12-07T15:33:40;5.60;99.90
10417;DHT22;62605;49.432;8.680;2022-12-07T15:36:19;5.50;99.90
10417;DHT22;62605;49.432;8.680;2022-12-07T15:38:47;5.50;99.90
10417;DHT22;62605;49.432;8.680;2022-12-07T15:41:16;5.50;99.90
10417;DHT22;62605;49.432;8.680;2022-12-07T15:43:43;5.60;1.00
10417;DHT22;62605;49.432;8.680;2022-12-07T15:46:30;5.50;99.90
10417;DHT22;62605;49.432;8.680;2022-12-07T15:48:59;5.50;1.00
10417;DHT22;62605;49.432;8.680;2022-12-07T15:51:26;5.50;1.00
10417;DHT22;62605;49.432;8.680;2022-12-07T15:53:57;5.50;1.00
10417;DHT22;62605;49.432;8.680;2022-12-07T15:56:28;5.60;1.00
10417;DHT22;62605;49.432;8.680;2022-12-07T15:58:59;5.60;99.90
10417;DHT22;62605;49.432;8.680;2022-12-07T16:01:33;5.60;1.00
10417;DHT22;62605;49.432;8.680;2022-12-07T16:04:04;5.50;99.90
10417;DHT22;62605;49.432;8.680;2022-12-07T16:06:42;5.50;99.90
10417;DHT22;62605;49.432;8.680;2022-12-07T16:09:11;5.50;99.90
10417;DHT22;62605;49.432;8.680;2022-12-07T16:11:41;5.60;99.90
10417;DHT22;62605;49.432;8.680;2022-12-07T16:14:08;5.50;1.00
10417;DHT22;62605;49.432;8.680;2022-12-07T16:16:36;5.50;1.00
10417;DHT22;62605;49.432;8.680;2022-12-07T16:19:06;5.50;1.00
10417;DHT22;62605;49.432;8.680;2022-12-07T16:21:36;5.40;99.90
10417;DHT22;62605;49.432;8.680;2022-12-07T16:24:03;5.40;1.00
10417;DHT22;62605;49.432;8.680;2022-12-07T16:26:31;5.40;1.00
10417;DHT22;62605;49.432;8.680;2022-12-07T16:28:59;5.40;1.00
10417;DHT22;62605;49.432;8.680;2022-12-07T16:31:28;5.30;1.00
10417;DHT22;62605;49.432;8.680;2022-12-07T16:33:58;5.40;1.00
10417;DHT22;62605;49.432;8.680;2022-12-07T16:36:26;5.30;1.00
10417;DHT22;62605;49.432;8.680;2022-12-07T16:38:58;5.30;1.00
10417;DHT22;62605;49.432;8.680;2022-12-07T16:41:26;5.30;99.90